sensor_id;sensor_type;location;lat;lon;timestamp;P1;durP1;ratioP1;P2;durP2;ratioP2
18853;SDS011;9556;49.374;19.446;2023-04-24T00:02:15;8.85;;;5.40;;
18853;SDS011;9556;49.374;19.446;2023-04-24T00:04:42;9.20;;;6.10;;
18853;SDS011;9556;49.374;19.446;2023-04-24T00:07:10;8.82;;;5.57;;
18853;SDS011;9556;49.374;19.446;2023-04-24T00:09:37;8.10;;;5.80;;
18853;SDS011;9556;49.374;19.446;2023-04-24T00:12:05;10.25;;;6.32;;
18853;SDS011;9556;49.374;19.446;2023-04-24T00:14:32;10.73;;;6.75;;
18853;SDS011;9556;49.374;19.446;2023-04-24T00:16:59;8.77;;;5.40;;
18853;SDS011;9556;49.374;19.446;2023-04-24T00:19:29;6.55;;;4.78;;
18853;SDS011;9556;49.374;19.446;2023-04-24T00:21:56;6.85;;;4.47;;
18853;SDS011;9556;49.374;19.446;2023-04-24T00:24:23;8.05;;;5.50;;
18853;SDS011;9556;49.374;19.446;2023-04-24T00:26:50;5.80;;;4.22;;
18853;SDS011;9556;49.374;19.446;2023-04-24T00:29:17;8.15;;;4.78;;
18853;SDS011;9556;49.374;19.446;2023-04-24T00:31:44;6.72;;;4.63;;
18853;SDS011;9556;49.374;19.446;2023-04-24T00:34:11;7.18;;;4.40;;
18853;SDS011;9556;49.374;19.446;2023-04-24T00:36:40;7.65;;;5.32;;
18853;SDS011;9556;49.374;19.446;2023-04-24T00:39:07;7.60;;;5.13;;
18853;SDS011;9556;49.374;19.446;2023-04-24T00:41:34;8.45;;;6.03;;
18853;SDS011;9556;49.374;19.446;2023-04-24T00:44:02;11.40;;;5.95;;
18853;SDS011;9556;49.374;19.446;2023-04-24T00:46:29;11.13;;;5.95;;
18853;SDS011;9556;49.374;19.446;2023-04-24T00:48:57;11.52;;;6.85;;
18853;SDS011;9556;49.374;19.446;2023-04-24T00:51:25;9.50;;;6.25;;
18853;SDS011;9556;49.374;19.446;2023-04-24T00:53:54;8.60;;;5.82;;
18853;SDS011;9556;49.374;19.446;2023-04-24T00:56:21;10.95;;;6.32;;
18853;SDS011;9556;49.374;19.446;2023-04-24T00:58:48;10.43;;;6.05;;
18853;SDS011;9556;49.374;19.446;2023-04-24T01:01:16;12.27;;;5.68;;
18853;SDS011;9556;49.374;19.446;2023-04-24T01:03:45;12.25;;;6.15;;
18853;SDS011;9556;49.374;19.446;2023-04-24T01:06:13;10.13;;;5.57;;
18853;SDS011;9556;49.374;19.446;2023-04-24T01:08:40;10.98;;;5.72;;
18853;SDS011;9556;49.374;19.446;2023-04-24T01:11:09;8.68;;;5.80;;
18853;SDS011;9556;49.374;19.446;2023-04-24T01:13:36;7.93;;;5.43;;
18853;SDS011;9556;49.374;19.446;2023-04-24T01:16:04;9.18;;;5.97;;
18853;SDS011;9556;49.374;19.446;2023-04-24T01:18:31;9.65;;;5.97;;
18853;SDS011;9556;49.374;19.446;2023-04-24T01:20:59;6.60;;;4.55;;
18853;SDS011;9556;49.374;19.446;2023-04-24T01:23:27;7.68;;;5.13;;
18853;SDS011;9556;49.374;19.446;2023-04-24T01:25:55;7.90;;;4.90;;
18853;SDS011;9556;49.374;19.446;2023-04-24T01:28:22;7.88;;;5.00;;
18853;SDS011;9556;49.374;19.446;2023-04-24T01:30:49;6.78;;;5.10;;
18853;SDS011;9556;49.374;19.446;2023-04-24T01:33:17;7.97;;;5.32;;
18853;SDS011;9556;49.374;19.446;2023-04-24T01:35:44;8.77;;;5.88;;
18853;SDS011;9556;49.374;19.446;2023-04-24T01:38:11;9.75;;;5.68;;
18853;SDS011;9556;49.374;19.446;2023-04-24T01:40:40;10.68;;;6.18;;
18853;SDS011;9556;49.374;19.446;2023-04-24T01:43:07;8.25;;;5.72;;
18853;SDS011;9556;49.374;19.446;2023-04-24T01:45:34;8.68;;;5.18;;
18853;SDS011;9556;49.374;19.446;2023-04-24T01:48:01;9.52;;;6.68;;
18853;SDS011;9556;49.374;19.446;2023-04-24T01:50:29;10.68;;;6.78;;
18853;SDS011;9556;49.374;19.446;2023-04-24T01:52:56;11.27;;;6.93;;
18853;SDS011;9556;49.374;19.446;2023-04-24T01:55:23;10.68;;;6.75;;
18853;SDS011;9556;49.374;19.446;2023-04-24T01:57:52;8.25;;;6.10;;
18853;SDS011;9556;49.374;19.446;2023-04-24T02:00:22;9.55;;;5.82;;
18853;SDS011;9556;49.374;19.446;2023-04-24T02:02:49;11.80;;;6.82;;
18853;SDS011;9556;49.374;19.446;2023-04-24T02:05:17;12.15;;;6.97;;
18853;SDS011;9556;49.374;19.446;2023-04-24T02:07:44;12.48;;;7.20;;
18853;SDS011;9556;49.374;19.446;2023-04-24T02:10:11;11.95;;;7.63;;
18853;SDS011;9556;49.374;19.446;2023-04-24T02:12:38;13.07;;;6.85;;
18853;SDS011;9556;49.374;19.446;2023-04-24T02:15:07;9.50;;;6.20;;
18853;SDS011;9556;49.374;19.446;2023-04-24T02:17:34;12.23;;;6.97;;
18853;SDS011;9556;49.374;19.446;2023-04-24T02:20:01;7.88;;;5.60;;
18853;SDS011;9556;49.374;19.446;2023-04-24T02:22:29;8.68;;;5.10;;
18853;SDS011;9556;49.374;19.446;2023-04-24T02:24:56;8.05;;;5.50;;
18853;SDS011;9556;49.374;19.446;2023-04-24T02:27:24;7.70;;;5.70;;
18853;SDS011;9556;49.374;19.446;2023-04-24T02:29:51;8.73;;;5.50;;
18853;SDS011;9556;49.374;19.446;2023-04-24T02:32:19;11.80;;;5.85;;
18853;SDS011;9556;49.374;19.446;2023-04-24T02:34:46;8.05;;;5.63;;
18853;SDS011;9556;49.374;19.446;2023-04-24T02:37:14;10.43;;;6.72;;
18853;SDS011;9556;49.374;19.446;2023-04-24T02:39:41;8.25;;;5.63;;
18853;SDS011;9556;49.374;19.446;2023-04-24T02:42:08;6.25;;;4.60;;
18853;SDS011;9556;49.374;19.446;2023-04-24T02:44:35;11.40;;;6.50;;
18853;SDS011;9556;49.374;19.446;2023-04-24T02:47:02;8.23;;;5.55;;
18853;SDS011;9556;49.374;19.446;2023-04-24T02:49:31;7.70;;;5.28;;
18853;SDS011;9556;49.374;19.446;2023-04-24T02:51:58;9.88;;;6.28;;
18853;SDS011;9556;49.374;19.446;2023-04-24T02:54:25;10.10;;;6.18;;
18853;SDS011;9556;49.374;19.446;2023-04-24T02:56:52;8.63;;;5.82;;
18853;SDS011;9556;49.374;19.446;2023-04-24T02:59:20;7.65;;;5.53;;
18853;SDS011;9556;49.374;19.446;2023-04-24T03:01:47;9.88;;;6.38;;
18853;SDS011;9556;49.374;19.446;2023-04-24T03:04:14;10.38;;;6.00;;
18853;SDS011;9556;49.374;19.446;2023-04-24T03:06:43;12.27;;;6.63;;
18853;SDS011;9556;49.374;19.446;2023-04-24T03:09:10;7.32;;;5.00;;
18853;SDS011;9556;49.374;19.446;2023-04-24T03:11:37;6.50;;;4.70;;
18853;SDS011;9556;49.374;19.446;2023-04-24T03:14:04;7.10;;;5.28;;
18853;SDS011;9556;49.374;19.446;2023-04-24T03:16:31;10.02;;;6.50;;
18853;SDS011;9556;49.374;19.446;2023-04-24T03:18:59;8.60;;;5.30;;
18853;SDS011;9556;49.374;19.446;2023-04-24T03:21:26;8.02;;;5.20;;
18853;SDS011;9556;49.374;19.446;2023-04-24T03:23:55;7.47;;;5.28;;
18853;SDS011;9556;49.374;19.446;2023-04-24T03:26:22;8.93;;;5.10;;
18853;SDS011;9556;49.374;19.446;2023-04-24T03:28:49;10.05;;;5.78;;
18853;SDS011;9556;49.374;19.446;2023-04-24T03:31:17;8.60;;;5.60;;
18853;SDS011;9556;49.374;19.446;2023-04-24T03:33:46;6.88;;;4.90;;
18853;SDS011;9556;49.374;19.446;2023-04-24T03:36:13;10.98;;;5.75;;
18853;SDS011;9556;49.374;19.446;2023-04-24T03:38:40;9.68;;;5.22;;
18853;SDS011;9556;49.374;19.446;2023-04-24T03:41:09;12.30;;;7.35;;
18853;SDS011;9556;49.374;19.446;2023-04-24T03:43:36;10.18;;;6.32;;
18853;SDS011;9556;49.374;19.446;2023-04-24T03:46:04;10.90;;;5.85;;
18853;SDS011;9556;49.374;19.446;2023-04-24T03:48:32;7.40;;;4.95;;
18853;SDS011;9556;49.374;19.446;2023-04-24T03:50:59;8.70;;;5.60;;
18853;SDS011;9556;49.374;19.446;2023-04-24T03:53:26;9.85;;;5.75;;
18853;SDS011;9556;49.374;19.446;2023-04-24T03:55:53;7.78;;;5.03;;
18853;SDS011;9556;49.374;19.446;2023-04-24T03:58:22;7.18;;;4.53;;
18853;SDS011;9556;49.374;19.446;2023-04-24T04:00:49;8.90;;;4.72;;
18853;SDS011;9556;49.374;19.446;2023-04-24T04:03:16;7.47;;;4.28;;
18853;SDS011;9556;49.374;19.446;2023-04-24T04:05:43;5.90;;;4.20;;
18853;SDS011;9556;49.374;19.446;2023-04-24T04:08:10;8.85;;;4.70;;
18853;SDS011;9556;49.374;19.446;2023-04-24T04:10:38;7.82;;;4.60;;
18853;SDS011;9556;49.374;19.446;2023-04-24T04:13:05;9.07;;;4.25;;
18853;SDS011;9556;49.374;19.446;2023-04-24T04:15:33;6.50;;;4.68;;
18853;SDS011;9556;49.374;19.446;2023-04-24T04:18:01;7.25;;;4.68;;
18853;SDS011;9556;49.374;19.446;2023-04-24T04:20:28;7.88;;;4.88;;
18853;SDS011;9556;49.374;19.446;2023-04-24T04:22:55;7.95;;;4.53;;
18853;SDS011;9556;49.374;19.446;2023-04-24T04:25:22;9.32;;;4.70;;
18853;SDS011;9556;49.374;19.446;2023-04-24T04:27:49;6.00;;;4.28;;
18853;SDS011;9556;49.374;19.446;2023-04-24T04:30:17;7.93;;;4.65;;
18853;SDS011;9556;49.374;19.446;2023-04-24T04:32:47;9.98;;;5.03;;
18853;SDS011;9556;49.374;19.446;2023-04-24T04:35:14;7.00;;;4.57;;
18853;SDS011;9556;49.374;19.446;2023-04-24T04:37:41;6.68;;;4.25;;
18853;SDS011;9556;49.374;19.446;2023-04-24T04:40:09;6.80;;;4.32;;
18853;SDS011;9556;49.374;19.446;2023-04-24T04:42:37;15.65;;;5.72;;
18853;SDS011;9556;49.374;19.446;2023-04-24T04:45:05;7.05;;;4.50;;
18853;SDS011;9556;49.374;19.446;2023-04-24T04:47:34;8.82;;;4.35;;
18853;SDS011;9556;49.374;19.446;2023-04-24T04:50:03;7.00;;;4.10;;
18853;SDS011;9556;49.374;19.446;2023-04-24T04:52:30;8.10;;;4.68;;
18853;SDS011;9556;49.374;19.446;2023-04-24T04:54:57;9.23;;;4.40;;
18853;SDS011;9556;49.374;19.446;2023-04-24T04:57:25;6.18;;;3.90;;
18853;SDS011;9556;49.374;19.446;2023-04-24T04:59:52;8.18;;;4.70;;
18853;SDS011;9556;49.374;19.446;2023-04-24T05:02:19;6.88;;;4.35;;
18853;SDS011;9556;49.374;19.446;2023-04-24T05:04:47;6.70;;;4.20;;
18853;SDS011;9556;49.374;19.446;2023-04-24T05:07:15;6.75;;;4.43;;
18853;SDS011;9556;49.374;19.446;2023-04-24T05:09:43;6.93;;;4.28;;
18853;SDS011;9556;49.374;19.446;2023-04-24T05:12:10;9.32;;;4.25;;
18853;SDS011;9556;49.374;19.446;2023-04-24T05:14:37;8.23;;;5.07;;
18853;SDS011;9556;49.374;19.446;2023-04-24T05:17:05;9.75;;;4.93;;
18853;SDS011;9556;49.374;19.446;2023-04-24T05:19:32;8.98;;;4.90;;
18853;SDS011;9556;49.374;19.446;2023-04-24T05:22:02;6.53;;;4.20;;
18853;SDS011;9556;49.374;19.446;2023-04-24T05:24:33;11.55;;;4.70;;
18853;SDS011;9556;49.374;19.446;2023-04-24T05:27:00;8.98;;;4.30;;
18853;SDS011;9556;49.374;19.446;2023-04-24T05:29:27;28.63;;;7.20;;
18853;SDS011;9556;49.374;19.446;2023-04-24T05:31:55;14.00;;;5.65;;
18853;SDS011;9556;49.374;19.446;2023-04-24T05:34:23;20.60;;;5.95;;
18853;SDS011;9556;49.374;19.446;2023-04-24T05:36:50;18.10;;;6.00;;
18853;SDS011;9556;49.374;19.446;2023-04-24T05:39:18;15.55;;;5.90;;
18853;SDS011;9556;49.374;19.446;2023-04-24T05:41:47;16.83;;;6.30;;
18853;SDS011;9556;49.374;19.446;2023-04-24T05:44:14;21.95;;;6.70;;
18853;SDS011;9556;49.374;19.446;2023-04-24T05:46:41;20.63;;;8.00;;
18853;SDS011;9556;49.374;19.446;2023-04-24T05:49:08;18.55;;;8.40;;
18853;SDS011;9556;49.374;19.446;2023-04-24T05:51:35;24.33;;;9.15;;
18853;SDS011;9556;49.374;19.446;2023-04-24T05:54:04;27.25;;;8.65;;
18853;SDS011;9556;49.374;19.446;2023-04-24T05:56:31;20.83;;;7.88;;
18853;SDS011;9556;49.374;19.446;2023-04-24T05:59:00;24.05;;;8.35;;
18853;SDS011;9556;49.374;19.446;2023-04-24T06:01:28;18.80;;;8.60;;
18853;SDS011;9556;49.374;19.446;2023-04-24T06:03:56;26.13;;;8.52;;
18853;SDS011;9556;49.374;19.446;2023-04-24T06:06:23;18.88;;;7.80;;
18853;SDS011;9556;49.374;19.446;2023-04-24T06:08:52;20.92;;;7.95;;
18853;SDS011;9556;49.374;19.446;2023-04-24T06:11:19;20.00;;;8.00;;
18853;SDS011;9556;49.374;19.446;2023-04-24T06:13:46;24.25;;;7.95;;
18853;SDS011;9556;49.374;19.446;2023-04-24T06:16:15;20.35;;;8.45;;
18853;SDS011;9556;49.374;19.446;2023-04-24T06:18:42;19.77;;;7.28;;
18853;SDS011;9556;49.374;19.446;2023-04-24T06:21:10;18.15;;;7.68;;
18853;SDS011;9556;49.374;19.446;2023-04-24T06:23:37;17.88;;;7.28;;
18853;SDS011;9556;49.374;19.446;2023-04-24T06:26:04;10.80;;;6.53;;
18853;SDS011;9556;49.374;19.446;2023-04-24T06:28:31;11.63;;;6.50;;
18853;SDS011;9556;49.374;19.446;2023-04-24T06:30:58;17.08;;;6.65;;
18853;SDS011;9556;49.374;19.446;2023-04-24T06:33:27;12.68;;;6.13;;
18853;SDS011;9556;49.374;19.446;2023-04-24T06:35:54;9.98;;;6.32;;
18853;SDS011;9556;49.374;19.446;2023-04-24T06:38:21;11.85;;;6.25;;
18853;SDS011;9556;49.374;19.446;2023-04-24T06:40:48;13.75;;;6.35;;
18853;SDS011;9556;49.374;19.446;2023-04-24T06:43:16;14.85;;;7.20;;
18853;SDS011;9556;49.374;19.446;2023-04-24T06:45:43;16.08;;;7.10;;
18853;SDS011;9556;49.374;19.446;2023-04-24T06:48:11;13.32;;;7.10;;
18853;SDS011;9556;49.374;19.446;2023-04-24T06:50:40;14.35;;;7.00;;
18853;SDS011;9556;49.374;19.446;2023-04-24T06:53:07;14.85;;;7.57;;
18853;SDS011;9556;49.374;19.446;2023-04-24T06:55:36;11.38;;;6.55;;
18853;SDS011;9556;49.374;19.446;2023-04-24T06:58:03;10.25;;;6.25;;
18853;SDS011;9556;49.374;19.446;2023-04-24T07:00:31;13.82;;;7.00;;
18853;SDS011;9556;49.374;19.446;2023-04-24T07:02:58;14.32;;;6.97;;
18853;SDS011;9556;49.374;19.446;2023-04-24T07:05:25;10.68;;;6.47;;
18853;SDS011;9556;49.374;19.446;2023-04-24T07:07:54;13.48;;;7.30;;
18853;SDS011;9556;49.374;19.446;2023-04-24T07:10:23;12.77;;;6.85;;
18853;SDS011;9556;49.374;19.446;2023-04-24T07:12:52;13.55;;;6.68;;
18853;SDS011;9556;49.374;19.446;2023-04-24T07:15:19;17.60;;;6.90;;
18853;SDS011;9556;49.374;19.446;2023-04-24T07:17:46;13.52;;;6.22;;
18853;SDS011;9556;49.374;19.446;2023-04-24T07:20:13;12.07;;;6.75;;
18853;SDS011;9556;49.374;19.446;2023-04-24T07:22:41;14.70;;;6.97;;
18853;SDS011;9556;49.374;19.446;2023-04-24T07:25:09;17.70;;;7.90;;
18853;SDS011;9556;49.374;19.446;2023-04-24T07:27:37;12.95;;;7.60;;
18853;SDS011;9556;49.374;19.446;2023-04-24T07:30:04;14.85;;;7.05;;
18853;SDS011;9556;49.374;19.446;2023-04-24T07:32:32;12.60;;;6.72;;
18853;SDS011;9556;49.374;19.446;2023-04-24T07:35:00;15.93;;;7.03;;
18853;SDS011;9556;49.374;19.446;2023-04-24T07:37:27;11.73;;;6.93;;
18853;SDS011;9556;49.374;19.446;2023-04-24T07:39:55;11.05;;;5.72;;
18853;SDS011;9556;49.374;19.446;2023-04-24T07:42:23;10.63;;;6.15;;
18853;SDS011;9556;49.374;19.446;2023-04-24T07:44:50;9.23;;;5.68;;
18853;SDS011;9556;49.374;19.446;2023-04-24T07:47:17;10.95;;;5.90;;
18853;SDS011;9556;49.374;19.446;2023-04-24T07:49:45;10.27;;;6.03;;
18853;SDS011;9556;49.374;19.446;2023-04-24T07:52:12;10.65;;;5.60;;
18853;SDS011;9556;49.374;19.446;2023-04-24T07:54:39;10.52;;;5.93;;
18853;SDS011;9556;49.374;19.446;2023-04-24T07:57:07;8.30;;;5.40;;
18853;SDS011;9556;49.374;19.446;2023-04-24T07:59:36;12.48;;;5.72;;
18853;SDS011;9556;49.374;19.446;2023-04-24T08:02:03;11.10;;;5.88;;
18853;SDS011;9556;49.374;19.446;2023-04-24T08:04:31;10.15;;;5.85;;
18853;SDS011;9556;49.374;19.446;2023-04-24T08:06:58;9.27;;;5.50;;
18853;SDS011;9556;49.374;19.446;2023-04-24T08:09:25;8.60;;;5.50;;
18853;SDS011;9556;49.374;19.446;2023-04-24T08:11:52;8.75;;;5.38;;
18853;SDS011;9556;49.374;19.446;2023-04-24T08:14:19;10.63;;;5.80;;
18853;SDS011;9556;49.374;19.446;2023-04-24T08:16:48;8.57;;;5.18;;
18853;SDS011;9556;49.374;19.446;2023-04-24T08:19:15;9.07;;;5.50;;
18853;SDS011;9556;49.374;19.446;2023-04-24T08:21:42;10.63;;;5.40;;
18853;SDS011;9556;49.374;19.446;2023-04-24T08:24:09;8.30;;;5.05;;
18853;SDS011;9556;49.374;19.446;2023-04-24T08:26:36;7.85;;;4.93;;
18853;SDS011;9556;49.374;19.446;2023-04-24T08:29:04;8.38;;;5.28;;
18853;SDS011;9556;49.374;19.446;2023-04-24T08:31:31;8.98;;;4.90;;
18853;SDS011;9556;49.374;19.446;2023-04-24T08:34:00;9.55;;;5.25;;
18853;SDS011;9556;49.374;19.446;2023-04-24T08:36:27;7.95;;;4.82;;
18853;SDS011;9556;49.374;19.446;2023-04-24T08:38:54;9.05;;;4.50;;
18853;SDS011;9556;49.374;19.446;2023-04-24T08:41:22;6.97;;;4.63;;
18853;SDS011;9556;49.374;19.446;2023-04-24T08:43:51;8.57;;;4.40;;
18853;SDS011;9556;49.374;19.446;2023-04-24T08:46:20;10.30;;;4.47;;
18853;SDS011;9556;49.374;19.446;2023-04-24T08:48:47;7.47;;;4.50;;
18853;SDS011;9556;49.374;19.446;2023-04-24T08:51:16;7.47;;;3.83;;
18853;SDS011;9556;49.374;19.446;2023-04-24T08:53:43;5.85;;;3.97;;
18853;SDS011;9556;49.374;19.446;2023-04-24T08:56:11;8.70;;;4.63;;
18853;SDS011;9556;49.374;19.446;2023-04-24T08:58:39;9.63;;;4.22;;
18853;SDS011;9556;49.374;19.446;2023-04-24T09:01:06;9.43;;;4.50;;
18853;SDS011;9556;49.374;19.446;2023-04-24T09:03:33;9.52;;;4.72;;
18853;SDS011;9556;49.374;19.446;2023-04-24T09:06:01;8.75;;;4.65;;
18853;SDS011;9556;49.374;19.446;2023-04-24T09:08:30;7.38;;;4.78;;
18853;SDS011;9556;49.374;19.446;2023-04-24T09:10:57;7.95;;;4.40;;
18853;SDS011;9556;49.374;19.446;2023-04-24T09:13:27;9.30;;;4.88;;
18853;SDS011;9556;49.374;19.446;2023-04-24T09:15:55;9.23;;;4.60;;
18853;SDS011;9556;49.374;19.446;2023-04-24T09:18:25;7.70;;;4.50;;
18853;SDS011;9556;49.374;19.446;2023-04-24T09:21:02;10.27;;;4.57;;
18853;SDS011;9556;49.374;19.446;2023-04-24T09:23:31;11.85;;;4.90;;
18853;SDS011;9556;49.374;19.446;2023-04-24T09:25:59;11.82;;;4.20;;
18853;SDS011;9556;49.374;19.446;2023-04-24T09:28:28;7.20;;;4.40;;
18853;SDS011;9556;49.374;19.446;2023-04-24T09:31:02;9.55;;;4.43;;
18853;SDS011;9556;49.374;19.446;2023-04-24T09:33:29;9.35;;;3.85;;
18853;SDS011;9556;49.374;19.446;2023-04-24T09:35:57;7.20;;;4.28;;
18853;SDS011;9556;49.374;19.446;2023-04-24T09:38:36;7.57;;;4.28;;
18853;SDS011;9556;49.374;19.446;2023-04-24T09:41:04;6.15;;;4.03;;
18853;SDS011;9556;49.374;19.446;2023-04-24T09:43:32;8.73;;;3.97;;
18853;SDS011;9556;49.374;19.446;2023-04-24T09:46:04;5.63;;;3.80;;
18853;SDS011;9556;49.374;19.446;2023-04-24T09:48:31;7.07;;;3.90;;
18853;SDS011;9556;49.374;19.446;2023-04-24T09:50:59;6.07;;;3.50;;
18853;SDS011;9556;49.374;19.446;2023-04-24T09:53:28;9.07;;;4.05;;
18853;SDS011;9556;49.374;19.446;2023-04-24T09:55:56;6.22;;;3.58;;
18853;SDS011;9556;49.374;19.446;2023-04-24T09:58:28;8.55;;;4.20;;
18853;SDS011;9556;49.374;19.446;2023-04-24T10:00:56;9.38;;;4.00;;
18853;SDS011;9556;49.374;19.446;2023-04-24T10:03:24;7.95;;;3.80;;
18853;SDS011;9556;49.374;19.446;2023-04-24T10:05:57;8.88;;;3.85;;
18853;SDS011;9556;49.374;19.446;2023-04-24T10:08:25;7.60;;;3.90;;
18853;SDS011;9556;49.374;19.446;2023-04-24T10:10:52;6.57;;;4.15;;
18853;SDS011;9556;49.374;19.446;2023-04-24T10:13:21;6.13;;;3.65;;
18853;SDS011;9556;49.374;19.446;2023-04-24T10:15:48;7.72;;;3.70;;
18853;SDS011;9556;49.374;19.446;2023-04-24T10:18:15;8.63;;;4.35;;
18853;SDS011;9556;49.374;19.446;2023-04-24T10:20:43;8.82;;;4.00;;
18853;SDS011;9556;49.374;19.446;2023-04-24T10:23:11;11.25;;;3.80;;
18853;SDS011;9556;49.374;19.446;2023-04-24T10:25:38;9.90;;;3.92;;
18853;SDS011;9556;49.374;19.446;2023-04-24T10:28:06;10.77;;;4.30;;
18853;SDS011;9556;49.374;19.446;2023-04-24T10:30:34;12.73;;;3.80;;
18853;SDS011;9556;49.374;19.446;2023-04-24T10:33:02;14.25;;;3.78;;
18853;SDS011;9556;49.374;19.446;2023-04-24T10:35:30;12.05;;;3.90;;
18853;SDS011;9556;49.374;19.446;2023-04-24T10:37:58;12.65;;;4.15;;
18853;SDS011;9556;49.374;19.446;2023-04-24T10:40:26;6.15;;;3.50;;
18853;SDS011;9556;49.374;19.446;2023-04-24T10:42:54;4.60;;;3.33;;
18853;SDS011;9556;49.374;19.446;2023-04-24T10:45:23;4.53;;;3.35;;
18853;SDS011;9556;49.374;19.446;2023-04-24T10:47:52;4.57;;;3.17;;
18853;SDS011;9556;49.374;19.446;2023-04-24T10:50:19;4.45;;;3.17;;
18853;SDS011;9556;49.374;19.446;2023-04-24T10:52:47;5.10;;;3.20;;
18853;SDS011;9556;49.374;19.446;2023-04-24T10:55:16;4.32;;;3.55;;
18853;SDS011;9556;49.374;19.446;2023-04-24T11:00:25;8.25;;;3.40;;
18853;SDS011;9556;49.374;19.446;2023-04-24T11:02:54;4.70;;;3.40;;
18853;SDS011;9556;49.374;19.446;2023-04-24T11:05:22;8.07;;;3.40;;
18853;SDS011;9556;49.374;19.446;2023-04-24T11:08:09;5.47;;;3.55;;
18853;SDS011;9556;49.374;19.446;2023-04-24T11:10:38;5.28;;;3.30;;
18853;SDS011;9556;49.374;19.446;2023-04-24T11:13:05;5.50;;;3.30;;
18853;SDS011;9556;49.374;19.446;2023-04-24T11:15:32;4.85;;;3.50;;
18853;SDS011;9556;49.374;19.446;2023-04-24T11:18:01;5.53;;;3.45;;
18853;SDS011;9556;49.374;19.446;2023-04-24T11:20:28;5.13;;;3.72;;
18853;SDS011;9556;49.374;19.446;2023-04-24T11:22:55;5.43;;;3.55;;
18853;SDS011;9556;49.374;19.446;2023-04-24T11:25:30;4.93;;;3.80;;
18853;SDS011;9556;49.374;19.446;2023-04-24T11:28:03;9.52;;;4.15;;
18853;SDS011;9556;49.374;19.446;2023-04-24T11:30:30;5.22;;;3.45;;
18853;SDS011;9556;49.374;19.446;2023-04-24T11:33:02;6.13;;;3.65;;
18853;SDS011;9556;49.374;19.446;2023-04-24T11:35:30;5.88;;;4.00;;
18853;SDS011;9556;49.374;19.446;2023-04-24T11:38:02;6.43;;;3.40;;
18853;SDS011;9556;49.374;19.446;2023-04-24T11:40:30;5.47;;;3.33;;
18853;SDS011;9556;49.374;19.446;2023-04-24T11:42:59;5.30;;;3.40;;
18853;SDS011;9556;49.374;19.446;2023-04-24T11:45:27;4.15;;;3.22;;
18853;SDS011;9556;49.374;19.446;2023-04-24T11:47:54;4.00;;;2.85;;
18853;SDS011;9556;49.374;19.446;2023-04-24T11:50:24;3.75;;;3.20;;
18853;SDS011;9556;49.374;19.446;2023-04-24T11:52:52;3.67;;;3.05;;
18853;SDS011;9556;49.374;19.446;2023-04-24T11:55:24;5.32;;;3.42;;
18853;SDS011;9556;49.374;19.446;2023-04-24T11:57:53;4.40;;;3.20;;
18853;SDS011;9556;49.374;19.446;2023-04-24T12:00:22;4.32;;;3.25;;
18853;SDS011;9556;49.374;19.446;2023-04-24T12:02:49;5.78;;;3.30;;
18853;SDS011;9556;49.374;19.446;2023-04-24T12:05:20;4.40;;;3.45;;
18853;SDS011;9556;49.374;19.446;2023-04-24T12:07:48;9.13;;;3.70;;
18853;SDS011;9556;49.374;19.446;2023-04-24T12:10:19;5.10;;;3.20;;
18853;SDS011;9556;49.374;19.446;2023-04-24T12:12:46;4.82;;;3.65;;
18853;SDS011;9556;49.374;19.446;2023-04-24T12:15:15;4.75;;;3.45;;
18853;SDS011;9556;49.374;19.446;2023-04-24T12:17:43;6.25;;;3.97;;
18853;SDS011;9556;49.374;19.446;2023-04-24T12:20:10;5.13;;;3.50;;
18853;SDS011;9556;49.374;19.446;2023-04-24T12:22:44;4.95;;;3.58;;
18853;SDS011;9556;49.374;19.446;2023-04-24T12:25:13;4.10;;;3.00;;
18853;SDS011;9556;49.374;19.446;2023-04-24T12:27:40;4.90;;;3.20;;
18853;SDS011;9556;49.374;19.446;2023-04-24T12:30:10;4.00;;;2.88;;
18853;SDS011;9556;49.374;19.446;2023-04-24T12:32:40;4.70;;;3.30;;
18853;SDS011;9556;49.374;19.446;2023-04-24T12:35:08;5.97;;;3.13;;
18853;SDS011;9556;49.374;19.446;2023-04-24T12:37:35;4.78;;;3.30;;
18853;SDS011;9556;49.374;19.446;2023-04-24T12:40:05;5.57;;;3.15;;
18853;SDS011;9556;49.374;19.446;2023-04-24T12:42:34;3.53;;;2.90;;
18853;SDS011;9556;49.374;19.446;2023-04-24T12:45:02;4.03;;;3.00;;
18853;SDS011;9556;49.374;19.446;2023-04-24T12:47:30;4.38;;;3.28;;
18853;SDS011;9556;49.374;19.446;2023-04-24T12:49:57;4.30;;;3.22;;
18853;SDS011;9556;49.374;19.446;2023-04-24T12:52:25;4.82;;;3.40;;
18853;SDS011;9556;49.374;19.446;2023-04-24T12:54:52;6.20;;;3.25;;
18853;SDS011;9556;49.374;19.446;2023-04-24T12:57:20;4.68;;;3.20;;
18853;SDS011;9556;49.374;19.446;2023-04-24T12:59:48;3.97;;;3.28;;
18853;SDS011;9556;49.374;19.446;2023-04-24T13:02:15;8.18;;;3.40;;
18853;SDS011;9556;49.374;19.446;2023-04-24T13:04:43;4.82;;;3.25;;
18853;SDS011;9556;49.374;19.446;2023-04-24T13:07:11;4.50;;;3.30;;
18853;SDS011;9556;49.374;19.446;2023-04-24T13:09:39;4.60;;;3.45;;
18853;SDS011;9556;49.374;19.446;2023-04-24T13:12:06;4.10;;;3.40;;
18853;SDS011;9556;49.374;19.446;2023-04-24T13:14:34;6.75;;;4.10;;
18853;SDS011;9556;49.374;19.446;2023-04-24T13:17:03;5.10;;;3.95;;
18853;SDS011;9556;49.374;19.446;2023-04-24T13:19:34;5.60;;;4.20;;
18853;SDS011;9556;49.374;19.446;2023-04-24T13:22:02;4.65;;;3.92;;
18853;SDS011;9556;49.374;19.446;2023-04-24T13:24:30;9.20;;;7.00;;
18853;SDS011;9556;49.374;19.446;2023-04-24T13:26:57;8.93;;;6.90;;
18853;SDS011;9556;49.374;19.446;2023-04-24T13:29:25;7.95;;;6.30;;
18853;SDS011;9556;49.374;19.446;2023-04-24T13:31:53;6.80;;;4.97;;
18853;SDS011;9556;49.374;19.446;2023-04-24T13:34:22;5.80;;;4.60;;
18853;SDS011;9556;49.374;19.446;2023-04-24T13:36:50;8.02;;;5.20;;
18853;SDS011;9556;49.374;19.446;2023-04-24T13:39:17;6.05;;;4.50;;
18853;SDS011;9556;49.374;19.446;2023-04-24T13:41:44;6.90;;;4.38;;
18853;SDS011;9556;49.374;19.446;2023-04-24T13:44:13;7.03;;;5.05;;
18853;SDS011;9556;49.374;19.446;2023-04-24T13:46:40;7.90;;;5.80;;
18853;SDS011;9556;49.374;19.446;2023-04-24T13:49:08;7.85;;;5.57;;
18853;SDS011;9556;49.374;19.446;2023-04-24T13:51:37;7.72;;;5.50;;
18853;SDS011;9556;49.374;19.446;2023-04-24T13:54:05;8.73;;;6.30;;
18853;SDS011;9556;49.374;19.446;2023-04-24T13:56:32;8.77;;;5.90;;
18853;SDS011;9556;49.374;19.446;2023-04-24T13:58:59;7.57;;;5.63;;
18853;SDS011;9556;49.374;19.446;2023-04-24T14:01:27;7.50;;;5.75;;
18853;SDS011;9556;49.374;19.446;2023-04-24T14:03:54;5.97;;;4.82;;
18853;SDS011;9556;49.374;19.446;2023-04-24T14:06:22;6.45;;;4.53;;
18853;SDS011;9556;49.374;19.446;2023-04-24T14:08:51;5.43;;;3.95;;
18853;SDS011;9556;49.374;19.446;2023-04-24T14:11:18;5.07;;;3.70;;
18853;SDS011;9556;49.374;19.446;2023-04-24T14:13:46;6.35;;;4.15;;
18853;SDS011;9556;49.374;19.446;2023-04-24T14:16:13;6.97;;;4.47;;
18853;SDS011;9556;49.374;19.446;2023-04-24T14:18:40;5.03;;;3.90;;
18853;SDS011;9556;49.374;19.446;2023-04-24T14:21:07;6.25;;;4.88;;
18853;SDS011;9556;49.374;19.446;2023-04-24T14:23:35;6.70;;;4.68;;
18853;SDS011;9556;49.374;19.446;2023-04-24T14:26:03;7.07;;;5.00;;
18853;SDS011;9556;49.374;19.446;2023-04-24T14:28:30;8.63;;;6.75;;
18853;SDS011;9556;49.374;19.446;2023-04-24T14:30:58;9.20;;;5.72;;
18853;SDS011;9556;49.374;19.446;2023-04-24T14:33:25;6.47;;;5.00;;
18853;SDS011;9556;49.374;19.446;2023-04-24T14:35:52;10.60;;;6.70;;
18853;SDS011;9556;49.374;19.446;2023-04-24T14:38:19;10.18;;;6.50;;
18853;SDS011;9556;49.374;19.446;2023-04-24T14:40:46;7.32;;;4.90;;
18853;SDS011;9556;49.374;19.446;2023-04-24T14:43:15;9.55;;;6.38;;
18853;SDS011;9556;49.374;19.446;2023-04-24T14:45:42;9.82;;;6.55;;
18853;SDS011;9556;49.374;19.446;2023-04-24T14:48:09;15.43;;;9.63;;
18853;SDS011;9556;49.374;19.446;2023-04-24T14:50:37;8.88;;;5.50;;